sensor_id;sensor_type;location;lat;lon;timestamp;P1;durP1;ratioP1;P2;durP2;ratioP2
28022;SDS011;67403;50.104;8.758;2023-04-24T00:01:33;1.27;;;0.95;;
28022;SDS011;67403;50.104;8.758;2023-04-24T00:04:03;3.25;;;1.15;;
28022;SDS011;67403;50.104;8.758;2023-04-24T00:06:31;2.78;;;1.00;;
28022;SDS011;67403;50.104;8.758;2023-04-24T00:08:59;1.58;;;1.20;;
28022;SDS011;67403;50.104;8.758;2023-04-24T00:11:26;2.03;;;0.90;;
28022;SDS011;67403;50.104;8.758;2023-04-24T00:13:53;1.30;;;0.90;;
28022;SDS011;67403;50.104;8.758;2023-04-24T00:16:20;1.30;;;0.80;;
28022;SDS011;67403;50.104;8.758;2023-04-24T00:18:47;4.97;;;0.90;;
28022;SDS011;67403;50.104;8.758;2023-04-24T00:21:15;3.92;;;1.00;;
28022;SDS011;67403;50.104;8.758;2023-04-24T00:23:43;1.30;;;1.02;;
28022;SDS011;67403;50.104;8.758;2023-04-24T00:26:10;1.23;;;0.88;;
28022;SDS011;67403;50.104;8.758;2023-04-24T00:28:36;2.15;;;1.05;;
28022;SDS011;67403;50.104;8.758;2023-04-24T00:31:03;1.02;;;0.88;;
28022;SDS011;67403;50.104;8.758;2023-04-24T00:33:30;1.90;;;1.23;;
28022;SDS011;67403;50.104;8.758;2023-04-24T00:35:57;0.90;;;0.77;;
28022;SDS011;67403;50.104;8.758;2023-04-24T00:38:26;1.10;;;1.00;;
28022;SDS011;67403;50.104;8.758;2023-04-24T00:40:52;1.20;;;1.10;;
28022;SDS011;67403;50.104;8.758;2023-04-24T00:43:20;3.20;;;1.00;;
28022;SDS011;67403;50.104;8.758;2023-04-24T00:45:47;3.25;;;1.00;;
28022;SDS011;67403;50.104;8.758;2023-04-24T00:48:14;1.48;;;1.02;;
28022;SDS011;67403;50.104;8.758;2023-04-24T00:50:41;1.95;;;1.30;;
28022;SDS011;67403;50.104;8.758;2023-04-24T00:53:08;0.77;;;0.73;;
28022;SDS011;67403;50.104;8.758;2023-04-24T00:55:36;3.55;;;1.08;;
28022;SDS011;67403;50.104;8.758;2023-04-24T00:58:04;1.10;;;0.88;;
28022;SDS011;67403;50.104;8.758;2023-04-24T01:00:31;3.47;;;1.00;;
28022;SDS011;67403;50.104;8.758;2023-04-24T01:02:59;1.17;;;0.85;;
28022;SDS011;67403;50.104;8.758;2023-04-24T01:05:30;1.63;;;1.00;;
28022;SDS011;67403;50.104;8.758;2023-04-24T01:07:57;1.48;;;0.93;;
28022;SDS011;67403;50.104;8.758;2023-04-24T01:10:25;0.82;;;0.77;;
28022;SDS011;67403;50.104;8.758;2023-04-24T01:12:56;2.80;;;0.77;;
28022;SDS011;67403;50.104;8.758;2023-04-24T01:15:24;1.25;;;1.00;;
28022;SDS011;67403;50.104;8.758;2023-04-24T01:17:51;1.23;;;0.90;;
28022;SDS011;67403;50.104;8.758;2023-04-24T01:20:18;1.55;;;0.93;;
28022;SDS011;67403;50.104;8.758;2023-04-24T01:22:47;1.77;;;1.00;;
28022;SDS011;67403;50.104;8.758;2023-04-24T01:25:14;1.70;;;1.10;;
28022;SDS011;67403;50.104;8.758;2023-04-24T01:27:41;1.80;;;1.20;;
28022;SDS011;67403;50.104;8.758;2023-04-24T01:30:08;4.80;;;0.82;;
28022;SDS011;67403;50.104;8.758;2023-04-24T01:32:36;1.85;;;0.82;;
28022;SDS011;67403;50.104;8.758;2023-04-24T01:35:04;2.28;;;1.35;;
28022;SDS011;67403;50.104;8.758;2023-04-24T01:37:32;1.70;;;1.00;;
28022;SDS011;67403;50.104;8.758;2023-04-24T01:40:00;2.40;;;0.82;;
28022;SDS011;67403;50.104;8.758;2023-04-24T01:42:28;0.60;;;0.60;;
28022;SDS011;67403;50.104;8.758;2023-04-24T01:44:55;1.90;;;1.00;;
28022;SDS011;67403;50.104;8.758;2023-04-24T01:47:23;1.90;;;1.00;;
28022;SDS011;67403;50.104;8.758;2023-04-24T01:49:50;1.70;;;1.00;;
28022;SDS011;67403;50.104;8.758;2023-04-24T01:52:17;1.60;;;0.90;;
28022;SDS011;67403;50.104;8.758;2023-04-24T01:54:44;2.25;;;1.00;;
28022;SDS011;67403;50.104;8.758;2023-04-24T01:57:13;1.70;;;1.13;;
28022;SDS011;67403;50.104;8.758;2023-04-24T01:59:40;4.10;;;1.10;;
28022;SDS011;67403;50.104;8.758;2023-04-24T02:02:07;3.78;;;1.65;;
28022;SDS011;67403;50.104;8.758;2023-04-24T02:04:34;2.72;;;1.10;;
28022;SDS011;67403;50.104;8.758;2023-04-24T02:07:01;2.88;;;1.35;;
28022;SDS011;67403;50.104;8.758;2023-04-24T02:09:28;1.55;;;1.10;;
28022;SDS011;67403;50.104;8.758;2023-04-24T02:11:54;4.00;;;0.80;;
28022;SDS011;67403;50.104;8.758;2023-04-24T02:14:23;3.13;;;1.00;;
28022;SDS011;67403;50.104;8.758;2023-04-24T02:16:49;2.72;;;1.30;;
28022;SDS011;67403;50.104;8.758;2023-04-24T02:19:16;1.38;;;0.75;;
28022;SDS011;67403;50.104;8.758;2023-04-24T02:21:43;1.20;;;1.10;;
28022;SDS011;67403;50.104;8.758;2023-04-24T02:24:10;1.17;;;0.95;;
28022;SDS011;67403;50.104;8.758;2023-04-24T02:26:37;2.95;;;1.10;;
28022;SDS011;67403;50.104;8.758;2023-04-24T02:29:04;2.90;;;1.17;;
28022;SDS011;67403;50.104;8.758;2023-04-24T02:31:32;3.75;;;1.13;;
28022;SDS011;67403;50.104;8.758;2023-04-24T02:33:59;1.10;;;1.00;;
28022;SDS011;67403;50.104;8.758;2023-04-24T02:36:26;1.50;;;0.90;;
28022;SDS011;67403;50.104;8.758;2023-04-24T02:38:53;1.65;;;1.15;;
28022;SDS011;67403;50.104;8.758;2023-04-24T02:41:20;1.98;;;1.25;;
28022;SDS011;67403;50.104;8.758;2023-04-24T02:43:47;3.83;;;0.95;;
28022;SDS011;67403;50.104;8.758;2023-04-24T02:46:13;1.50;;;0.95;;
28022;SDS011;67403;50.104;8.758;2023-04-24T02:48:42;0.90;;;0.90;;
28022;SDS011;67403;50.104;8.758;2023-04-24T02:51:09;3.45;;;1.40;;
28022;SDS011;67403;50.104;8.758;2023-04-24T02:53:35;2.63;;;0.90;;
28022;SDS011;67403;50.104;8.758;2023-04-24T02:56:02;6.22;;;1.00;;
28022;SDS011;67403;50.104;8.758;2023-04-24T02:58:29;1.42;;;1.02;;
28022;SDS011;67403;50.104;8.758;2023-04-24T03:00:56;0.80;;;0.70;;
28022;SDS011;67403;50.104;8.758;2023-04-24T03:03:23;2.28;;;1.58;;
28022;SDS011;67403;50.104;8.758;2023-04-24T03:05:52;3.95;;;1.10;;
28022;SDS011;67403;50.104;8.758;2023-04-24T03:08:19;3.92;;;1.00;;
28022;SDS011;67403;50.104;8.758;2023-04-24T03:10:46;1.58;;;0.93;;
28022;SDS011;67403;50.104;8.758;2023-04-24T03:13:13;1.77;;;1.13;;
28022;SDS011;67403;50.104;8.758;2023-04-24T03:15:39;5.53;;;1.33;;
28022;SDS011;67403;50.104;8.758;2023-04-24T03:18:06;4.68;;;1.08;;
28022;SDS011;67403;50.104;8.758;2023-04-24T03:20:33;1.20;;;1.15;;
28022;SDS011;67403;50.104;8.758;2023-04-24T03:23:03;2.70;;;1.35;;
28022;SDS011;67403;50.104;8.758;2023-04-24T03:25:30;2.30;;;1.10;;
28022;SDS011;67403;50.104;8.758;2023-04-24T03:27:57;4.38;;;1.30;;
28022;SDS011;67403;50.104;8.758;2023-04-24T03:30:24;2.38;;;1.55;;
28022;SDS011;67403;50.104;8.758;2023-04-24T03:32:51;2.83;;;1.40;;
28022;SDS011;67403;50.104;8.758;2023-04-24T03:35:18;2.00;;;1.30;;
28022;SDS011;67403;50.104;8.758;2023-04-24T03:37:46;2.58;;;1.17;;
28022;SDS011;67403;50.104;8.758;2023-04-24T03:40:14;4.82;;;1.50;;
28022;SDS011;67403;50.104;8.758;2023-04-24T03:42:41;3.97;;;1.60;;
28022;SDS011;67403;50.104;8.758;2023-04-24T03:45:08;4.32;;;1.60;;
28022;SDS011;67403;50.104;8.758;2023-04-24T03:47:36;1.50;;;1.30;;
28022;SDS011;67403;50.104;8.758;2023-04-24T03:50:03;1.33;;;1.17;;
28022;SDS011;67403;50.104;8.758;2023-04-24T03:52:30;1.70;;;1.40;;
28022;SDS011;67403;50.104;8.758;2023-04-24T03:54:57;2.35;;;1.13;;
28022;SDS011;67403;50.104;8.758;2023-04-24T03:57:25;3.22;;;1.20;;
28022;SDS011;67403;50.104;8.758;2023-04-24T03:59:52;5.20;;;1.40;;
28022;SDS011;67403;50.104;8.758;2023-04-24T04:02:19;1.40;;;1.20;;
28022;SDS011;67403;50.104;8.758;2023-04-24T04:04:46;2.90;;;1.25;;
28022;SDS011;67403;50.104;8.758;2023-04-24T04:07:13;2.85;;;1.25;;
28022;SDS011;67403;50.104;8.758;2023-04-24T04:09:40;1.38;;;1.27;;
28022;SDS011;67403;50.104;8.758;2023-04-24T04:12:07;2.67;;;1.40;;
28022;SDS011;67403;50.104;8.758;2023-04-24T04:14:35;1.52;;;1.35;;
28022;SDS011;67403;50.104;8.758;2023-04-24T04:17:02;3.03;;;1.75;;
28022;SDS011;67403;50.104;8.758;2023-04-24T04:19:29;2.10;;;1.38;;
28022;SDS011;67403;50.104;8.758;2023-04-24T04:21:56;2.33;;;1.50;;
28022;SDS011;67403;50.104;8.758;2023-04-24T04:24:22;1.67;;;1.40;;
28022;SDS011;67403;50.104;8.758;2023-04-24T04:26:49;1.98;;;1.73;;
28022;SDS011;67403;50.104;8.758;2023-04-24T04:29:17;2.33;;;1.58;;
28022;SDS011;67403;50.104;8.758;2023-04-24T04:31:45;2.08;;;1.48;;
28022;SDS011;67403;50.104;8.758;2023-04-24T04:34:12;3.80;;;1.52;;
28022;SDS011;67403;50.104;8.758;2023-04-24T04:36:40;1.65;;;1.33;;
28022;SDS011;67403;50.104;8.758;2023-04-24T04:39:08;6.25;;;1.50;;
28022;SDS011;67403;50.104;8.758;2023-04-24T04:41:35;1.35;;;1.25;;
28022;SDS011;67403;50.104;8.758;2023-04-24T04:44:02;1.48;;;1.15;;
28022;SDS011;67403;50.104;8.758;2023-04-24T04:46:30;1.58;;;1.42;;
28022;SDS011;67403;50.104;8.758;2023-04-24T04:49:00;1.90;;;1.70;;
28022;SDS011;67403;50.104;8.758;2023-04-24T04:51:28;1.67;;;1.47;;
28022;SDS011;67403;50.104;8.758;2023-04-24T04:53:55;1.38;;;1.27;;
28022;SDS011;67403;50.104;8.758;2023-04-24T04:56:22;1.80;;;1.27;;
28022;SDS011;67403;50.104;8.758;2023-04-24T04:58:49;1.63;;;1.30;;
28022;SDS011;67403;50.104;8.758;2023-04-24T05:01:15;2.00;;;1.42;;
28022;SDS011;67403;50.104;8.758;2023-04-24T05:03:42;1.35;;;1.25;;
28022;SDS011;67403;50.104;8.758;2023-04-24T05:06:11;1.88;;;1.50;;
28022;SDS011;67403;50.104;8.758;2023-04-24T05:08:37;1.73;;;1.45;;
28022;SDS011;67403;50.104;8.758;2023-04-24T05:11:05;3.58;;;1.45;;
28022;SDS011;67403;50.104;8.758;2023-04-24T05:13:32;3.80;;;1.80;;
28022;SDS011;67403;50.104;8.758;2023-04-24T05:15:59;2.03;;;1.40;;
28022;SDS011;67403;50.104;8.758;2023-04-24T05:18:26;2.35;;;1.45;;
28022;SDS011;67403;50.104;8.758;2023-04-24T05:20:53;2.55;;;1.75;;
28022;SDS011;67403;50.104;8.758;2023-04-24T05:23:21;3.83;;;1.50;;
28022;SDS011;67403;50.104;8.758;2023-04-24T05:25:48;2.33;;;1.52;;
28022;SDS011;67403;50.104;8.758;2023-04-24T05:28:15;2.58;;;1.60;;
28022;SDS011;67403;50.104;8.758;2023-04-24T05:30:42;1.92;;;1.20;;
28022;SDS011;67403;50.104;8.758;2023-04-24T05:33:08;1.48;;;1.20;;
28022;SDS011;67403;50.104;8.758;2023-04-24T05:35:35;1.88;;;1.50;;
28022;SDS011;67403;50.104;8.758;2023-04-24T05:38:02;2.50;;;1.73;;
28022;SDS011;67403;50.104;8.758;2023-04-24T05:40:30;2.78;;;1.92;;
28022;SDS011;67403;50.104;8.758;2023-04-24T05:42:57;2.28;;;1.30;;
28022;SDS011;67403;50.104;8.758;2023-04-24T05:45:24;2.00;;;1.38;;
28022;SDS011;67403;50.104;8.758;2023-04-24T05:47:52;2.33;;;1.77;;
28022;SDS011;67403;50.104;8.758;2023-04-24T05:50:19;4.10;;;1.98;;
28022;SDS011;67403;50.104;8.758;2023-04-24T05:52:46;4.28;;;2.05;;
28022;SDS011;67403;50.104;8.758;2023-04-24T05:55:13;2.15;;;1.95;;
28022;SDS011;67403;50.104;8.758;2023-04-24T05:57:43;4.28;;;1.85;;
28022;SDS011;67403;50.104;8.758;2023-04-24T06:00:11;2.50;;;2.00;;
28022;SDS011;67403;50.104;8.758;2023-04-24T06:02:39;2.70;;;2.03;;
28022;SDS011;67403;50.104;8.758;2023-04-24T06:05:06;3.70;;;2.10;;
28022;SDS011;67403;50.104;8.758;2023-04-24T06:07:34;3.33;;;1.95;;
28022;SDS011;67403;50.104;8.758;2023-04-24T06:10:01;3.05;;;1.75;;
28022;SDS011;67403;50.104;8.758;2023-04-24T06:12:29;2.55;;;1.95;;
28022;SDS011;67403;50.104;8.758;2023-04-24T06:14:57;2.80;;;1.77;;
28022;SDS011;67403;50.104;8.758;2023-04-24T06:17:25;1.92;;;1.73;;
28022;SDS011;67403;50.104;8.758;2023-04-24T06:19:52;3.50;;;2.53;;
28022;SDS011;67403;50.104;8.758;2023-04-24T06:22:19;3.22;;;1.80;;
28022;SDS011;67403;50.104;8.758;2023-04-24T06:24:46;2.30;;;1.67;;
28022;SDS011;67403;50.104;8.758;2023-04-24T06:27:13;2.72;;;2.15;;
28022;SDS011;67403;50.104;8.758;2023-04-24T06:29:40;2.92;;;2.20;;
28022;SDS011;67403;50.104;8.758;2023-04-24T06:32:08;3.13;;;2.08;;
28022;SDS011;67403;50.104;8.758;2023-04-24T06:34:35;2.55;;;2.10;;
28022;SDS011;67403;50.104;8.758;2023-04-24T06:37:02;4.88;;;2.50;;
28022;SDS011;67403;50.104;8.758;2023-04-24T06:39:29;2.20;;;2.00;;
28022;SDS011;67403;50.104;8.758;2023-04-24T06:41:56;3.20;;;2.30;;
28022;SDS011;67403;50.104;8.758;2023-04-24T06:44:23;3.78;;;1.98;;
28022;SDS011;67403;50.104;8.758;2023-04-24T06:46:50;2.70;;;2.20;;
28022;SDS011;67403;50.104;8.758;2023-04-24T06:49:18;3.58;;;2.72;;
28022;SDS011;67403;50.104;8.758;2023-04-24T06:51:45;5.20;;;3.08;;
28022;SDS011;67403;50.104;8.758;2023-04-24T06:54:12;3.05;;;2.42;;
28022;SDS011;67403;50.104;8.758;2023-04-24T06:56:39;2.80;;;2.03;;
28022;SDS011;67403;50.104;8.758;2023-04-24T06:59:06;6.47;;;2.50;;
28022;SDS011;67403;50.104;8.758;2023-04-24T07:01:32;3.80;;;2.30;;
28022;SDS011;67403;50.104;8.758;2023-04-24T07:03:59;6.50;;;2.40;;
28022;SDS011;67403;50.104;8.758;2023-04-24T07:06:28;4.18;;;2.40;;
28022;SDS011;67403;50.104;8.758;2023-04-24T07:08:56;3.22;;;2.45;;
28022;SDS011;67403;50.104;8.758;2023-04-24T07:11:23;4.40;;;1.90;;
28022;SDS011;67403;50.104;8.758;2023-04-24T07:13:54;8.20;;;2.10;;
28022;SDS011;67403;50.104;8.758;2023-04-24T07:16:21;4.03;;;2.22;;
28022;SDS011;67403;50.104;8.758;2023-04-24T07:18:48;3.05;;;2.10;;
28022;SDS011;67403;50.104;8.758;2023-04-24T07:21:15;4.20;;;2.22;;
28022;SDS011;67403;50.104;8.758;2023-04-24T07:23:43;3.78;;;2.50;;
28022;SDS011;67403;50.104;8.758;2023-04-24T07:26:10;3.58;;;2.08;;
28022;SDS011;67403;50.104;8.758;2023-04-24T07:28:37;4.13;;;2.80;;
28022;SDS011;67403;50.104;8.758;2023-04-24T07:31:04;2.38;;;2.17;;
28022;SDS011;67403;50.104;8.758;2023-04-24T07:33:31;4.32;;;2.55;;
28022;SDS011;67403;50.104;8.758;2023-04-24T07:35:58;2.58;;;2.20;;
28022;SDS011;67403;50.104;8.758;2023-04-24T07:38:25;4.82;;;2.45;;
28022;SDS011;67403;50.104;8.758;2023-04-24T07:40:53;2.63;;;2.00;;
28022;SDS011;67403;50.104;8.758;2023-04-24T07:43:20;2.33;;;2.00;;
28022;SDS011;67403;50.104;8.758;2023-04-24T07:45:48;2.28;;;2.03;;
28022;SDS011;67403;50.104;8.758;2023-04-24T07:48:16;3.05;;;2.20;;
28022;SDS011;67403;50.104;8.758;2023-04-24T07:50:43;3.65;;;2.03;;
28022;SDS011;67403;50.104;8.758;2023-04-24T07:53:10;3.35;;;2.42;;
28022;SDS011;67403;50.104;8.758;2023-04-24T07:55:37;2.60;;;1.83;;
28022;SDS011;67403;50.104;8.758;2023-04-24T07:58:05;3.60;;;2.22;;
28022;SDS011;67403;50.104;8.758;2023-04-24T08:00:32;5.82;;;3.55;;
28022;SDS011;67403;50.104;8.758;2023-04-24T08:03:00;3.35;;;2.13;;
28022;SDS011;67403;50.104;8.758;2023-04-24T08:05:27;2.70;;;2.00;;
28022;SDS011;67403;50.104;8.758;2023-04-24T08:07:54;2.95;;;2.10;;
28022;SDS011;67403;50.104;8.758;2023-04-24T08:10:21;3.92;;;2.20;;
28022;SDS011;67403;50.104;8.758;2023-04-24T08:12:49;4.40;;;2.28;;
28022;SDS011;67403;50.104;8.758;2023-04-24T08:15:17;3.25;;;2.28;;
28022;SDS011;67403;50.104;8.758;2023-04-24T08:17:44;3.38;;;2.72;;
28022;SDS011;67403;50.104;8.758;2023-04-24T08:20:11;2.92;;;2.30;;
28022;SDS011;67403;50.104;8.758;2023-04-24T08:22:39;3.95;;;2.55;;
28022;SDS011;67403;50.104;8.758;2023-04-24T08:25:06;4.47;;;2.30;;
28022;SDS011;67403;50.104;8.758;2023-04-24T08:27:34;2.72;;;2.33;;
28022;SDS011;67403;50.104;8.758;2023-04-24T08:30:02;8.23;;;2.75;;
28022;SDS011;67403;50.104;8.758;2023-04-24T08:32:31;4.05;;;2.38;;
28022;SDS011;67403;50.104;8.758;2023-04-24T08:34:58;3.22;;;2.60;;
28022;SDS011;67403;50.104;8.758;2023-04-24T08:37:26;3.65;;;2.28;;
28022;SDS011;67403;50.104;8.758;2023-04-24T08:39:53;3.15;;;2.15;;
28022;SDS011;67403;50.104;8.758;2023-04-24T08:42:20;3.50;;;2.40;;
28022;SDS011;67403;50.104;8.758;2023-04-24T08:44:48;3.38;;;1.88;;
28022;SDS011;67403;50.104;8.758;2023-04-24T08:47:15;7.55;;;4.65;;
28022;SDS011;67403;50.104;8.758;2023-04-24T08:49:44;4.22;;;3.15;;
28022;SDS011;67403;50.104;8.758;2023-04-24T08:52:14;3.58;;;2.20;;
28022;SDS011;67403;50.104;8.758;2023-04-24T08:54:42;4.50;;;2.00;;
28022;SDS011;67403;50.104;8.758;2023-04-24T08:57:11;3.13;;;2.17;;
28022;SDS011;67403;50.104;8.758;2023-04-24T08:59:40;2.85;;;2.05;;
28022;SDS011;67403;50.104;8.758;2023-04-24T09:02:08;3.58;;;1.98;;
28022;SDS011;67403;50.104;8.758;2023-04-24T09:04:37;2.55;;;2.05;;
28022;SDS011;67403;50.104;8.758;2023-04-24T09:07:05;4.50;;;2.50;;
28022;SDS011;67403;50.104;8.758;2023-04-24T09:09:33;4.53;;;2.10;;
28022;SDS011;67403;50.104;8.758;2023-04-24T09:12:02;3.80;;;2.30;;
28022;SDS011;67403;50.104;8.758;2023-04-24T09:14:29;3.63;;;2.17;;
28022;SDS011;67403;50.104;8.758;2023-04-24T09:16:57;4.35;;;2.20;;
28022;SDS011;67403;50.104;8.758;2023-04-24T09:19:24;2.40;;;1.70;;
28022;SDS011;67403;50.104;8.758;2023-04-24T09:21:50;3.08;;;2.10;;
28022;SDS011;67403;50.104;8.758;2023-04-24T09:24:21;3.45;;;2.17;;
28022;SDS011;67403;50.104;8.758;2023-04-24T09:26:48;5.07;;;1.77;;
28022;SDS011;67403;50.104;8.758;2023-04-24T09:29:23;2.40;;;2.20;;
28022;SDS011;67403;50.104;8.758;2023-04-24T09:31:50;3.53;;;2.15;;
28022;SDS011;67403;50.104;8.758;2023-04-24T09:34:20;2.33;;;1.90;;
28022;SDS011;67403;50.104;8.758;2023-04-24T09:36:49;3.40;;;1.90;;
28022;SDS011;67403;50.104;8.758;2023-04-24T09:39:16;4.28;;;2.00;;
28022;SDS011;67403;50.104;8.758;2023-04-24T09:41:47;7.72;;;2.40;;
28022;SDS011;67403;50.104;8.758;2023-04-24T09:44:15;2.85;;;1.77;;
28022;SDS011;67403;50.104;8.758;2023-04-24T09:46:45;3.20;;;1.98;;
28022;SDS011;67403;50.104;8.758;2023-04-24T09:49:15;2.67;;;2.03;;
28022;SDS011;67403;50.104;8.758;2023-04-24T09:51:46;5.93;;;2.20;;
28022;SDS011;67403;50.104;8.758;2023-04-24T09:54:14;2.92;;;2.05;;
28022;SDS011;67403;50.104;8.758;2023-04-24T09:56:47;2.75;;;2.20;;
28022;SDS011;67403;50.104;8.758;2023-04-24T09:59:15;4.75;;;2.22;;
28022;SDS011;67403;50.104;8.758;2023-04-24T10:01:43;3.30;;;1.90;;
28022;SDS011;67403;50.104;8.758;2023-04-24T10:04:17;6.88;;;2.75;;
28022;SDS011;67403;50.104;8.758;2023-04-24T10:06:45;1.95;;;1.50;;
28022;SDS011;67403;50.104;8.758;2023-04-24T10:09:14;4.57;;;1.70;;
28022;SDS011;67403;50.104;8.758;2023-04-24T10:11:42;1.92;;;1.48;;
28022;SDS011;67403;50.104;8.758;2023-04-24T10:14:13;3.00;;;1.83;;
28022;SDS011;67403;50.104;8.758;2023-04-24T10:16:46;1.85;;;1.70;;
28022;SDS011;67403;50.104;8.758;2023-04-24T10:19:14;2.60;;;1.90;;
28022;SDS011;67403;50.104;8.758;2023-04-24T10:21:43;3.73;;;2.30;;
28022;SDS011;67403;50.104;8.758;2023-04-24T10:24:12;3.33;;;2.05;;
28022;SDS011;67403;50.104;8.758;2023-04-24T10:26:40;1.95;;;1.42;;
28022;SDS011;67403;50.104;8.758;2023-04-24T10:29:07;2.22;;;1.77;;
28022;SDS011;67403;50.104;8.758;2023-04-24T10:31:36;3.47;;;2.75;;
28022;SDS011;67403;50.104;8.758;2023-04-24T10:34:05;2.35;;;1.42;;
28022;SDS011;67403;50.104;8.758;2023-04-24T10:36:33;1.95;;;1.40;;
28022;SDS011;67403;50.104;8.758;2023-04-24T10:39:01;4.78;;;2.17;;
28022;SDS011;67403;50.104;8.758;2023-04-24T10:41:32;3.13;;;1.50;;
28022;SDS011;67403;50.104;8.758;2023-04-24T10:44:06;2.28;;;1.55;;
28022;SDS011;67403;50.104;8.758;2023-04-24T10:46:35;2.88;;;1.85;;
28022;SDS011;67403;50.104;8.758;2023-04-24T10:49:04;4.70;;;1.90;;
28022;SDS011;67403;50.104;8.758;2023-04-24T10:51:46;5.80;;;2.40;;
28022;SDS011;67403;50.104;8.758;2023-04-24T10:54:24;2.97;;;2.25;;
28022;SDS011;67403;50.104;8.758;2023-04-24T10:56:52;2.08;;;1.50;;
28022;SDS011;67403;50.104;8.758;2023-04-24T10:59:23;3.05;;;1.90;;
28022;SDS011;67403;50.104;8.758;2023-04-24T11:01:55;3.67;;;2.40;;
28022;SDS011;67403;50.104;8.758;2023-04-24T11:04:28;2.28;;;2.08;;
28022;SDS011;67403;50.104;8.758;2023-04-24T11:06:56;3.28;;;2.28;;
28022;SDS011;67403;50.104;8.758;2023-04-24T11:09:26;8.88;;;2.83;;
28022;SDS011;67403;50.104;8.758;2023-04-24T11:12:02;7.75;;;2.28;;
28022;SDS011;67403;50.104;8.758;2023-04-24T11:17:31;3.78;;;1.58;;
28022;SDS011;67403;50.104;8.758;2023-04-24T11:20:02;4.60;;;1.25;;
28022;SDS011;67403;50.104;8.758;2023-04-24T11:22:32;2.20;;;1.55;;
28022;SDS011;67403;50.104;8.758;2023-04-24T11:25:01;1.90;;;1.50;;
28022;SDS011;67403;50.104;8.758;2023-04-24T11:27:29;4.15;;;1.88;;
28022;SDS011;67403;50.104;8.758;2023-04-24T11:29:59;3.70;;;2.05;;
28022;SDS011;67403;50.104;8.758;2023-04-24T11:32:27;2.10;;;1.60;;
28022;SDS011;67403;50.104;8.758;2023-04-24T11:34:57;1.88;;;1.40;;
28022;SDS011;67403;50.104;8.758;2023-04-24T11:37:26;1.30;;;1.15;;
28022;SDS011;67403;50.104;8.758;2023-04-24T11:39:55;1.98;;;1.60;;
28022;SDS011;67403;50.104;8.758;2023-04-24T11:42:22;3.65;;;1.60;;
28022;SDS011;67403;50.104;8.758;2023-04-24T11:44:51;1.73;;;1.63;;
28022;SDS011;67403;50.104;8.758;2023-04-24T11:47:19;2.40;;;1.60;;
28022;SDS011;67403;50.104;8.758;2023-04-24T11:49:46;2.28;;;1.50;;
28022;SDS011;67403;50.104;8.758;2023-04-24T11:52:17;2.83;;;1.42;;
28022;SDS011;67403;50.104;8.758;2023-04-24T11:54:48;1.25;;;1.10;;
28022;SDS011;67403;50.104;8.758;2023-04-24T11:57:16;1.40;;;1.30;;
28022;SDS011;67403;50.104;8.758;2023-04-24T11:59:45;1.40;;;1.30;;
28022;SDS011;67403;50.104;8.758;2023-04-24T12:02:19;1.50;;;1.10;;
28022;SDS011;67403;50.104;8.758;2023-04-24T12:04:47;1.35;;;0.95;;
28022;SDS011;67403;50.104;8.758;2023-04-24T12:07:14;1.38;;;1.23;;
28022;SDS011;67403;50.104;8.758;2023-04-24T12:09:44;1.60;;;1.48;;
28022;SDS011;67403;50.104;8.758;2023-04-24T12:12:12;1.80;;;1.30;;
28022;SDS011;67403;50.104;8.758;2023-04-24T12:14:44;1.25;;;1.15;;
28022;SDS011;67403;50.104;8.758;2023-04-24T12:17:13;2.47;;;1.05;;
28022;SDS011;67403;50.104;8.758;2023-04-24T12:19:44;1.25;;;1.02;;
28022;SDS011;67403;50.104;8.758;2023-04-24T12:22:12;1.00;;;0.82;;
28022;SDS011;67403;50.104;8.758;2023-04-24T12:27:23;1.10;;;0.80;;
28022;SDS011;67403;50.104;8.758;2023-04-24T12:29:51;2.35;;;1.00;;
28022;SDS011;67403;50.104;8.758;2023-04-24T12:32:18;2.35;;;1.80;;
28022;SDS011;67403;50.104;8.758;2023-04-24T12:34:45;1.73;;;1.30;;
28022;SDS011;67403;50.104;8.758;2023-04-24T12:37:12;2.08;;;1.20;;
28022;SDS011;67403;50.104;8.758;2023-04-24T12:39:39;2.80;;;1.25;;
28022;SDS011;67403;50.104;8.758;2023-04-24T12:42:26;1.63;;;1.23;;
28022;SDS011;67403;50.104;8.758;2023-04-24T12:47:22;1.20;;;1.10;;
28022;SDS011;67403;50.104;8.758;2023-04-24T12:49:50;3.97;;;1.40;;
28022;SDS011;67403;50.104;8.758;2023-04-24T12:52:17;1.77;;;1.40;;
28022;SDS011;67403;50.104;8.758;2023-04-24T12:54:45;1.52;;;1.27;;
28022;SDS011;67403;50.104;8.758;2023-04-24T12:57:12;1.95;;;1.10;;
28022;SDS011;67403;50.104;8.758;2023-04-24T12:59:40;2.55;;;1.45;;
28022;SDS011;67403;50.104;8.758;2023-04-24T13:02:07;2.35;;;1.40;;
28022;SDS011;67403;50.104;8.758;2023-04-24T13:04:35;5.22;;;1.55;;
28022;SDS011;67403;50.104;8.758;2023-04-24T13:07:02;3.65;;;2.45;;
28022;SDS011;67403;50.104;8.758;2023-04-24T13:09:29;4.22;;;2.00;;
28022;SDS011;67403;50.104;8.758;2023-04-24T13:11:56;3.22;;;1.80;;
28022;SDS011;67403;50.104;8.758;2023-04-24T13:14:23;2.67;;;2.30;;
28022;SDS011;67403;50.104;8.758;2023-04-24T13:16:51;3.28;;;1.98;;
28022;SDS011;67403;50.104;8.758;2023-04-24T13:19:18;3.60;;;2.33;;
28022;SDS011;67403;50.104;8.758;2023-04-24T13:21:45;4.28;;;2.40;;
28022;SDS011;67403;50.104;8.758;2023-04-24T13:24:12;2.67;;;2.10;;
28022;SDS011;67403;50.104;8.758;2023-04-24T13:26:41;3.15;;;2.67;;
28022;SDS011;67403;50.104;8.758;2023-04-24T13:29:07;2.45;;;2.15;;
28022;SDS011;67403;50.104;8.758;2023-04-24T13:31:34;6.18;;;2.67;;
28022;SDS011;67403;50.104;8.758;2023-04-24T13:34:03;2.97;;;2.40;;
28022;SDS011;67403;50.104;8.758;2023-04-24T13:36:30;2.20;;;1.95;;
28022;SDS011;67403;50.104;8.758;2023-04-24T13:38:57;4.35;;;2.05;;
28022;SDS011;67403;50.104;8.758;2023-04-24T13:41:24;2.88;;;2.10;;
28022;SDS011;67403;50.104;8.758;2023-04-24T13:43:51;2.28;;;2.08;;
28022;SDS011;67403;50.104;8.758;2023-04-24T13:46:17;4.38;;;2.17;;
28022;SDS011;67403;50.104;8.758;2023-04-24T13:48:44;5.60;;;2.35;;
28022;SDS011;67403;50.104;8.758;2023-04-24T13:51:12;3.53;;;2.42;;
28022;SDS011;67403;50.104;8.758;2023-04-24T13:53:39;6.30;;;2.42;;
28022;SDS011;67403;50.104;8.758;2023-04-24T13:56:06;4.25;;;2.75;;
28022;SDS011;67403;50.104;8.758;2023-04-24T13:58:34;6.63;;;2.35;;
28022;SDS011;67403;50.104;8.758;2023-04-24T14:01:02;2.65;;;1.95;;
28022;SDS011;67403;50.104;8.758;2023-04-24T14:03:29;3.67;;;1.90;;
28022;SDS011;67403;50.104;8.758;2023-04-24T14:05:56;3.92;;;2.30;;
28022;SDS011;67403;50.104;8.758;2023-04-24T14:08:24;4.32;;;2.42;;
28022;SDS011;67403;50.104;8.758;2023-04-24T14:10:51;2.83;;;2.15;;
28022;SDS011;67403;50.104;8.758;2023-04-24T14:13:18;2.97;;;2.17;;
28022;SDS011;67403;50.104;8.758;2023-04-24T14:15:46;4.32;;;2.30;;
28022;SDS011;67403;50.104;8.758;2023-04-24T14:18:13;6.57;;;2.65;;
28022;SDS011;67403;50.104;8.758;2023-04-24T14:20:40;4.68;;;2.58;;
28022;SDS011;67403;50.104;8.758;2023-04-24T14:23:07;3.45;;;2.20;;
28022;SDS011;67403;50.104;8.758;2023-04-24T14:25:35;3.00;;;2.17;;
28022;SDS011;67403;50.104;8.758;2023-04-24T14:28:02;4.65;;;2.30;;
28022;SDS011;67403;50.104;8.758;2023-04-24T14:30:29;3.83;;;2.33;;
28022;SDS011;67403;50.104;8.758;2023-04-24T14:32:56;3.75;;;2.40;;
28022;SDS011;67403;50.104;8.758;2023-04-24T14:35:22;2.97;;;2.28;;
28022;SDS011;67403;50.104;8.758;2023-04-24T14:37:49;4.15;;;2.17;;
28022;SDS011;67403;50.104;8.758;2023-04-24T14:40:16;3.65;;;2.03;;
28022;SDS011;67403;50.104;8.758;2023-04-24T14:42:44;4.90;;;2.50;;
28022;SDS011;67403;50.104;8.758;2023-04-24T14:45:11;5.10;;;3.00;;
28022;SDS011;67403;50.104;8.758;2023-04-24T14:47:38;4.00;;;2.38;;
28022;SDS011;67403;50.104;8.758;2023-04-24T14:50:06;3.00;;;2.42;;
28022;SDS011;67403;50.104;8.758;2023-04-24T14:52:34;2.70;;;2.50;;
28022;SDS011;67403;50.104;8.758;2023-04-24T14:55:01;3.45;;;2.60;;
28022;SDS011;67403;50.104;8.758;2023-04-24T14:57:28;4.22;;;2.63;;
28022;SDS011;67403;50.104;8.758;2023-04-24T14:59:56;3.38;;;2.40;;